sensor_id;sensor_type;location;lat;lon;timestamp;P1;durP1;ratioP1;P2;durP2;ratioP2
18592;SDS011;9426;54.118;17.948;2024-01-15T00:03:49;6.80;;;3.20;;
18592;SDS011;9426;54.118;17.948;2024-01-15T00:09:15;7.33;;;3.00;;
18592;SDS011;9426;54.118;17.948;2024-01-15T00:14:39;5.47;;;3.23;;
18592;SDS011;9426;54.118;17.948;2024-01-15T00:20:04;10.50;;;3.30;;
18592;SDS011;9426;54.118;17.948;2024-01-15T00:25:30;5.93;;;2.97;;
18592;SDS011;9426;54.118;17.948;2024-01-15T00:30:54;5.40;;;3.30;;
18592;SDS011;9426;54.118;17.948;2024-01-15T00:36:18;9.77;;;3.77;;
18592;SDS011;9426;54.118;17.948;2024-01-15T00:41:43;5.37;;;3.57;;
18592;SDS011;9426;54.118;17.948;2024-01-15T00:47:07;6.53;;;2.93;;
18592;SDS011;9426;54.118;17.948;2024-01-15T00:52:31;5.70;;;3.33;;
18592;SDS011;9426;54.118;17.948;2024-01-15T00:57:57;5.43;;;3.00;;
18592;SDS011;9426;54.118;17.948;2024-01-15T01:03:21;4.03;;;2.60;;
18592;SDS011;9426;54.118;17.948;2024-01-15T01:08:45;4.57;;;2.47;;
18592;SDS011;9426;54.118;17.948;2024-01-15T01:14:10;4.20;;;2.60;;
18592;SDS011;9426;54.118;17.948;2024-01-15T01:19:34;5.03;;;2.10;;
18592;SDS011;9426;54.118;17.948;2024-01-15T01:24:58;2.80;;;2.10;;
18592;SDS011;9426;54.118;17.948;2024-01-15T01:30:23;4.10;;;2.90;;
18592;SDS011;9426;54.118;17.948;2024-01-15T01:35:47;3.57;;;2.30;;
18592;SDS011;9426;54.118;17.948;2024-01-15T01:41:11;8.20;;;3.30;;
18592;SDS011;9426;54.118;17.948;2024-01-15T01:46:36;6.80;;;2.80;;
18592;SDS011;9426;54.118;17.948;2024-01-15T01:52:02;6.10;;;2.90;;
18592;SDS011;9426;54.118;17.948;2024-01-15T01:57:28;4.83;;;3.47;;
18592;SDS011;9426;54.118;17.948;2024-01-15T02:02:55;6.37;;;3.67;;
18592;SDS011;9426;54.118;17.948;2024-01-15T02:08:19;4.87;;;3.47;;
18592;SDS011;9426;54.118;17.948;2024-01-15T02:13:44;5.07;;;3.23;;
18592;SDS011;9426;54.118;17.948;2024-01-15T02:19:13;6.07;;;3.43;;
18592;SDS011;9426;54.118;17.948;2024-01-15T02:24:40;5.43;;;3.37;;
18592;SDS011;9426;54.118;17.948;2024-01-15T02:30:05;7.03;;;3.50;;
18592;SDS011;9426;54.118;17.948;2024-01-15T02:35:31;5.50;;;3.50;;
18592;SDS011;9426;54.118;17.948;2024-01-15T02:40:56;4.27;;;3.20;;
18592;SDS011;9426;54.118;17.948;2024-01-15T02:46:20;6.17;;;4.03;;
18592;SDS011;9426;54.118;17.948;2024-01-15T02:51:43;7.10;;;4.20;;
18592;SDS011;9426;54.118;17.948;2024-01-15T02:57:09;7.27;;;5.37;;
18592;SDS011;9426;54.118;17.948;2024-01-15T03:02:37;6.20;;;4.47;;
18592;SDS011;9426;54.118;17.948;2024-01-15T03:08:03;7.43;;;4.60;;
18592;SDS011;9426;54.118;17.948;2024-01-15T03:13:29;6.73;;;4.83;;
18592;SDS011;9426;54.118;17.948;2024-01-15T03:18:53;7.97;;;5.10;;
18592;SDS011;9426;54.118;17.948;2024-01-15T03:24:17;7.80;;;5.30;;
18592;SDS011;9426;54.118;17.948;2024-01-15T03:29:42;7.93;;;5.33;;
18592;SDS011;9426;54.118;17.948;2024-01-15T03:35:06;9.90;;;5.83;;
18592;SDS011;9426;54.118;17.948;2024-01-15T03:40:30;10.70;;;6.17;;
18592;SDS011;9426;54.118;17.948;2024-01-15T03:45:57;7.73;;;5.13;;
18592;SDS011;9426;54.118;17.948;2024-01-15T03:51:21;9.53;;;5.80;;
18592;SDS011;9426;54.118;17.948;2024-01-15T03:56:46;8.17;;;5.47;;
18592;SDS011;9426;54.118;17.948;2024-01-15T04:02:11;10.67;;;5.90;;
18592;SDS011;9426;54.118;17.948;2024-01-15T04:07:35;11.03;;;5.87;;
18592;SDS011;9426;54.118;17.948;2024-01-15T04:13:00;9.87;;;5.70;;
18592;SDS011;9426;54.118;17.948;2024-01-15T04:18:27;7.50;;;4.60;;
18592;SDS011;9426;54.118;17.948;2024-01-15T04:23:50;5.67;;;4.17;;
18592;SDS011;9426;54.118;17.948;2024-01-15T04:29:14;7.63;;;4.90;;
18592;SDS011;9426;54.118;17.948;2024-01-15T04:34:40;5.60;;;3.80;;
18592;SDS011;9426;54.118;17.948;2024-01-15T04:40:04;4.20;;;2.70;;
18592;SDS011;9426;54.118;17.948;2024-01-15T04:45:29;4.43;;;3.00;;
18592;SDS011;9426;54.118;17.948;2024-01-15T04:50:54;3.23;;;2.70;;
18592;SDS011;9426;54.118;17.948;2024-01-15T04:56:18;5.23;;;2.40;;
18592;SDS011;9426;54.118;17.948;2024-01-15T05:01:42;3.70;;;2.07;;
18592;SDS011;9426;54.118;17.948;2024-01-15T05:07:08;2.70;;;1.90;;
18592;SDS011;9426;54.118;17.948;2024-01-15T05:12:31;5.00;;;2.33;;
18592;SDS011;9426;54.118;17.948;2024-01-15T05:17:55;8.33;;;2.40;;
18592;SDS011;9426;54.118;17.948;2024-01-15T05:23:21;5.80;;;1.90;;
18592;SDS011;9426;54.118;17.948;2024-01-15T05:28:45;6.23;;;1.77;;
18592;SDS011;9426;54.118;17.948;2024-01-15T05:34:10;7.97;;;2.20;;
18592;SDS011;9426;54.118;17.948;2024-01-15T05:39:37;6.80;;;2.27;;
18592;SDS011;9426;54.118;17.948;2024-01-15T05:45:04;9.70;;;1.90;;
18592;SDS011;9426;54.118;17.948;2024-01-15T05:50:31;9.60;;;2.10;;
18592;SDS011;9426;54.118;17.948;2024-01-15T05:55:58;6.97;;;2.00;;
18592;SDS011;9426;54.118;17.948;2024-01-15T06:01:26;5.87;;;2.13;;
18592;SDS011;9426;54.118;17.948;2024-01-15T06:06:53;6.00;;;2.03;;
18592;SDS011;9426;54.118;17.948;2024-01-15T06:12:20;9.67;;;2.27;;
18592;SDS011;9426;54.118;17.948;2024-01-15T06:17:45;13.07;;;2.73;;
18592;SDS011;9426;54.118;17.948;2024-01-15T06:23:09;14.77;;;3.30;;
18592;SDS011;9426;54.118;17.948;2024-01-15T06:28:34;10.97;;;3.37;;
18592;SDS011;9426;54.118;17.948;2024-01-15T06:33:58;17.00;;;3.33;;
18592;SDS011;9426;54.118;17.948;2024-01-15T06:39:22;15.33;;;3.60;;
18592;SDS011;9426;54.118;17.948;2024-01-15T06:44:48;14.93;;;3.67;;
18592;SDS011;9426;54.118;17.948;2024-01-15T06:50:12;14.57;;;3.10;;
18592;SDS011;9426;54.118;17.948;2024-01-15T06:55:38;11.17;;;3.60;;
18592;SDS011;9426;54.118;17.948;2024-01-15T07:01:05;14.00;;;3.50;;
18592;SDS011;9426;54.118;17.948;2024-01-15T07:06:29;9.77;;;3.03;;
18592;SDS011;9426;54.118;17.948;2024-01-15T07:11:54;8.50;;;3.53;;
18592;SDS011;9426;54.118;17.948;2024-01-15T07:17:21;11.10;;;4.10;;
18592;SDS011;9426;54.118;17.948;2024-01-15T07:22:44;10.87;;;3.87;;
18592;SDS011;9426;54.118;17.948;2024-01-15T07:28:08;7.03;;;3.13;;
18592;SDS011;9426;54.118;17.948;2024-01-15T07:33:33;7.43;;;3.03;;
18592;SDS011;9426;54.118;17.948;2024-01-15T07:38:57;5.33;;;2.80;;
18592;SDS011;9426;54.118;17.948;2024-01-15T07:44:21;8.53;;;3.57;;
18592;SDS011;9426;54.118;17.948;2024-01-15T07:49:47;8.57;;;2.80;;
18592;SDS011;9426;54.118;17.948;2024-01-15T07:55:11;6.47;;;3.50;;
18592;SDS011;9426;54.118;17.948;2024-01-15T08:00:35;11.73;;;3.27;;
18592;SDS011;9426;54.118;17.948;2024-01-15T08:06:01;7.57;;;3.13;;
18592;SDS011;9426;54.118;17.948;2024-01-15T08:11:25;6.97;;;2.57;;
18592;SDS011;9426;54.118;17.948;2024-01-15T08:16:50;6.67;;;2.37;;
18592;SDS011;9426;54.118;17.948;2024-01-15T08:22:15;11.50;;;2.53;;
18592;SDS011;9426;54.118;17.948;2024-01-15T08:27:41;6.40;;;2.30;;
18592;SDS011;9426;54.118;17.948;2024-01-15T08:33:05;5.00;;;2.00;;
18592;SDS011;9426;54.118;17.948;2024-01-15T08:38:32;8.03;;;1.80;;
18592;SDS011;9426;54.118;17.948;2024-01-15T08:43:56;2.77;;;1.57;;
18592;SDS011;9426;54.118;17.948;2024-01-15T08:49:20;5.50;;;1.73;;
18592;SDS011;9426;54.118;17.948;2024-01-15T08:54:45;5.73;;;1.90;;
18592;SDS011;9426;54.118;17.948;2024-01-15T09:00:11;8.33;;;1.43;;
18592;SDS011;9426;54.118;17.948;2024-01-15T09:05:35;7.07;;;1.57;;
18592;SDS011;9426;54.118;17.948;2024-01-15T09:11:01;6.37;;;2.00;;
18592;SDS011;9426;54.118;17.948;2024-01-15T09:16:26;4.70;;;1.30;;
18592;SDS011;9426;54.118;17.948;2024-01-15T09:21:50;6.50;;;1.70;;
18592;SDS011;9426;54.118;17.948;2024-01-15T09:27:15;2.70;;;1.47;;
18592;SDS011;9426;54.118;17.948;2024-01-15T09:32:39;6.67;;;1.70;;
18592;SDS011;9426;54.118;17.948;2024-01-15T09:38:03;12.57;;;1.40;;
18592;SDS011;9426;54.118;17.948;2024-01-15T09:43:30;6.47;;;1.80;;
18592;SDS011;9426;54.118;17.948;2024-01-15T09:48:53;4.33;;;1.50;;
18592;SDS011;9426;54.118;17.948;2024-01-15T09:54:17;8.70;;;1.70;;
18592;SDS011;9426;54.118;17.948;2024-01-15T09:59:43;7.17;;;1.70;;
18592;SDS011;9426;54.118;17.948;2024-01-15T10:05:09;3.20;;;1.37;;
18592;SDS011;9426;54.118;17.948;2024-01-15T10:10:33;6.47;;;2.17;;
18592;SDS011;9426;54.118;17.948;2024-01-15T10:16:01;5.77;;;1.50;;
18592;SDS011;9426;54.118;17.948;2024-01-15T10:21:25;3.10;;;1.20;;
18592;SDS011;9426;54.118;17.948;2024-01-15T10:26:49;2.73;;;1.23;;
18592;SDS011;9426;54.118;17.948;2024-01-15T10:32:14;3.80;;;1.30;;
18592;SDS011;9426;54.118;17.948;2024-01-15T10:37:38;5.00;;;1.47;;
18592;SDS011;9426;54.118;17.948;2024-01-15T10:43:04;7.10;;;1.67;;
18592;SDS011;9426;54.118;17.948;2024-01-15T10:48:32;7.00;;;1.20;;
18592;SDS011;9426;54.118;17.948;2024-01-15T10:53:57;6.97;;;1.93;;
18592;SDS011;9426;54.118;17.948;2024-01-15T10:59:23;4.63;;;1.80;;
18592;SDS011;9426;54.118;17.948;2024-01-15T11:04:49;5.97;;;2.00;;
18592;SDS011;9426;54.118;17.948;2024-01-15T11:16:02;7.37;;;2.00;;
18592;SDS011;9426;54.118;17.948;2024-01-15T11:21:29;5.23;;;1.80;;
18592;SDS011;9426;54.118;17.948;2024-01-15T11:26:53;4.83;;;1.97;;
18592;SDS011;9426;54.118;17.948;2024-01-15T11:32:18;4.70;;;1.20;;
18592;SDS011;9426;54.118;17.948;2024-01-15T11:37:58;6.97;;;1.43;;
18592;SDS011;9426;54.118;17.948;2024-01-15T11:43:22;4.63;;;1.43;;
18592;SDS011;9426;54.118;17.948;2024-01-15T11:48:46;5.53;;;1.50;;
18592;SDS011;9426;54.118;17.948;2024-01-15T11:54:19;4.57;;;1.40;;
18592;SDS011;9426;54.118;17.948;2024-01-15T11:59:46;2.73;;;1.30;;
18592;SDS011;9426;54.118;17.948;2024-01-15T12:05:10;3.40;;;1.47;;
18592;SDS011;9426;54.118;17.948;2024-01-15T12:10:37;6.17;;;1.20;;
18592;SDS011;9426;54.118;17.948;2024-01-15T12:16:02;7.33;;;1.30;;
18592;SDS011;9426;54.118;17.948;2024-01-15T12:21:27;3.03;;;1.00;;
18592;SDS011;9426;54.118;17.948;2024-01-15T12:26:52;4.07;;;1.17;;
18592;SDS011;9426;54.118;17.948;2024-01-15T12:32:16;1.90;;;0.97;;
18592;SDS011;9426;54.118;17.948;2024-01-15T12:37:42;3.93;;;1.20;;
18592;SDS011;9426;54.118;17.948;2024-01-15T12:43:10;3.30;;;1.33;;
18592;SDS011;9426;54.118;17.948;2024-01-15T12:48:34;1.87;;;1.00;;
18592;SDS011;9426;54.118;17.948;2024-01-15T12:53:58;2.63;;;1.30;;
18592;SDS011;9426;54.118;17.948;2024-01-15T12:59:23;4.03;;;1.53;;
18592;SDS011;9426;54.118;17.948;2024-01-15T13:04:47;4.23;;;1.23;;
18592;SDS011;9426;54.118;17.948;2024-01-15T13:10:11;2.57;;;1.30;;
18592;SDS011;9426;54.118;17.948;2024-01-15T13:15:37;3.13;;;1.23;;
18592;SDS011;9426;54.118;17.948;2024-01-15T13:21:01;2.90;;;1.37;;
18592;SDS011;9426;54.118;17.948;2024-01-15T13:26:24;2.60;;;1.43;;
18592;SDS011;9426;54.118;17.948;2024-01-15T13:31:50;2.33;;;1.20;;
18592;SDS011;9426;54.118;17.948;2024-01-15T13:37:13;4.27;;;1.80;;
18592;SDS011;9426;54.118;17.948;2024-01-15T13:42:37;6.27;;;1.30;;
18592;SDS011;9426;54.118;17.948;2024-01-15T13:48:02;5.90;;;2.03;;
18592;SDS011;9426;54.118;17.948;2024-01-15T13:53:27;6.43;;;2.13;;
18592;SDS011;9426;54.118;17.948;2024-01-15T13:58:51;4.63;;;1.43;;
18592;SDS011;9426;54.118;17.948;2024-01-15T14:04:16;2.80;;;1.23;;
18592;SDS011;9426;54.118;17.948;2024-01-15T14:09:39;3.20;;;1.30;;
18592;SDS011;9426;54.118;17.948;2024-01-15T14:15:04;5.13;;;1.40;;
18592;SDS011;9426;54.118;17.948;2024-01-15T14:20:30;8.20;;;1.60;;
18592;SDS011;9426;54.118;17.948;2024-01-15T14:25:54;6.27;;;1.67;;
18592;SDS011;9426;54.118;17.948;2024-01-15T14:31:18;6.07;;;1.57;;
18592;SDS011;9426;54.118;17.948;2024-01-15T14:36:44;10.70;;;1.67;;
18592;SDS011;9426;54.118;17.948;2024-01-15T14:42:08;7.33;;;1.80;;
18592;SDS011;9426;54.118;17.948;2024-01-15T14:47:32;6.60;;;1.70;;
18592;SDS011;9426;54.118;17.948;2024-01-15T14:52:58;12.40;;;2.43;;
18592;SDS011;9426;54.118;17.948;2024-01-15T14:58:22;7.10;;;2.70;;
18592;SDS011;9426;54.118;17.948;2024-01-15T15:03:45;11.23;;;2.60;;
18592;SDS011;9426;54.118;17.948;2024-01-15T15:09:11;4.63;;;2.03;;
18592;SDS011;9426;54.118;17.948;2024-01-15T15:14:34;6.33;;;1.93;;
18592;SDS011;9426;54.118;17.948;2024-01-15T15:20:03;6.13;;;2.47;;
18592;SDS011;9426;54.118;17.948;2024-01-15T15:25:30;9.67;;;2.00;;
18592;SDS011;9426;54.118;17.948;2024-01-15T15:30:55;4.47;;;1.90;;
18592;SDS011;9426;54.118;17.948;2024-01-15T15:36:20;8.57;;;2.50;;
18592;SDS011;9426;54.118;17.948;2024-01-15T15:41:46;7.80;;;2.60;;
18592;SDS011;9426;54.118;17.948;2024-01-15T15:47:11;9.83;;;3.33;;
18592;SDS011;9426;54.118;17.948;2024-01-15T15:52:35;9.93;;;3.37;;
18592;SDS011;9426;54.118;17.948;2024-01-15T15:58:00;7.27;;;2.47;;
18592;SDS011;9426;54.118;17.948;2024-01-15T16:03:25;4.17;;;1.90;;
18592;SDS011;9426;54.118;17.948;2024-01-15T16:08:49;5.73;;;2.20;;
18592;SDS011;9426;54.118;17.948;2024-01-15T16:14:14;6.63;;;2.63;;
18592;SDS011;9426;54.118;17.948;2024-01-15T16:19:39;9.10;;;4.40;;
18592;SDS011;9426;54.118;17.948;2024-01-15T16:25:23;4.13;;;1.93;;
18592;SDS011;9426;54.118;17.948;2024-01-15T16:30:50;6.00;;;2.33;;
18592;SDS011;9426;54.118;17.948;2024-01-15T16:36:16;6.63;;;2.20;;
18592;SDS011;9426;54.118;17.948;2024-01-15T16:41:42;7.57;;;2.30;;
18592;SDS011;9426;54.118;17.948;2024-01-15T16:47:07;6.33;;;1.80;;
18592;SDS011;9426;54.118;17.948;2024-01-15T16:52:31;5.20;;;2.37;;
18592;SDS011;9426;54.118;17.948;2024-01-15T16:57:55;5.23;;;2.37;;
18592;SDS011;9426;54.118;17.948;2024-01-15T17:03:21;5.70;;;2.03;;
18592;SDS011;9426;54.118;17.948;2024-01-15T17:08:48;4.03;;;1.90;;
18592;SDS011;9426;54.118;17.948;2024-01-15T17:14:13;6.80;;;2.67;;
18592;SDS011;9426;54.118;17.948;2024-01-15T17:19:40;6.77;;;1.90;;
18592;SDS011;9426;54.118;17.948;2024-01-15T17:25:05;5.00;;;2.00;;
18592;SDS011;9426;54.118;17.948;2024-01-15T17:30:30;4.87;;;2.20;;
18592;SDS011;9426;54.118;17.948;2024-01-15T17:35:56;8.57;;;3.00;;
18592;SDS011;9426;54.118;17.948;2024-01-15T17:41:20;5.40;;;2.70;;
18592;SDS011;9426;54.118;17.948;2024-01-15T17:46:45;4.03;;;2.10;;
18592;SDS011;9426;54.118;17.948;2024-01-15T17:52:10;2.40;;;1.53;;
18592;SDS011;9426;54.118;17.948;2024-01-15T17:57:34;3.20;;;1.30;;
18592;SDS011;9426;54.118;17.948;2024-01-15T18:02:58;4.53;;;1.70;;
18592;SDS011;9426;54.118;17.948;2024-01-15T18:08:24;2.47;;;1.20;;
18592;SDS011;9426;54.118;17.948;2024-01-15T18:13:48;2.40;;;1.30;;
18592;SDS011;9426;54.118;17.948;2024-01-15T18:19:14;1.73;;;1.07;;
18592;SDS011;9426;54.118;17.948;2024-01-15T18:24:40;4.17;;;1.63;;
18592;SDS011;9426;54.118;17.948;2024-01-15T18:30:05;2.13;;;1.37;;
18592;SDS011;9426;54.118;17.948;2024-01-15T18:35:30;4.20;;;1.40;;
18592;SDS011;9426;54.118;17.948;2024-01-15T18:40:56;2.97;;;1.40;;
18592;SDS011;9426;54.118;17.948;2024-01-15T18:46:22;4.77;;;1.50;;
18592;SDS011;9426;54.118;17.948;2024-01-15T18:51:45;2.07;;;1.40;;
18592;SDS011;9426;54.118;17.948;2024-01-15T18:57:15;1.57;;;1.10;;
18592;SDS011;9426;54.118;17.948;2024-01-15T19:02:39;2.67;;;1.20;;
18592;SDS011;9426;54.118;17.948;2024-01-15T19:08:04;2.77;;;1.23;;
18592;SDS011;9426;54.118;17.948;2024-01-15T19:13:29;3.23;;;1.40;;
18592;SDS011;9426;54.118;17.948;2024-01-15T19:18:53;7.43;;;1.20;;
18592;SDS011;9426;54.118;17.948;2024-01-15T19:24:17;2.77;;;1.10;;
18592;SDS011;9426;54.118;17.948;2024-01-15T19:29:44;1.67;;;1.00;;
18592;SDS011;9426;54.118;17.948;2024-01-15T19:35:09;3.57;;;0.90;;
18592;SDS011;9426;54.118;17.948;2024-01-15T19:40:34;5.57;;;1.37;;
18592;SDS011;9426;54.118;17.948;2024-01-15T19:45:59;2.60;;;1.10;;
18592;SDS011;9426;54.118;17.948;2024-01-15T19:51:24;2.73;;;1.10;;
18592;SDS011;9426;54.118;17.948;2024-01-15T19:56:48;2.37;;;1.40;;
18592;SDS011;9426;54.118;17.948;2024-01-15T20:02:13;5.03;;;1.70;;
18592;SDS011;9426;54.118;17.948;2024-01-15T20:07:37;3.17;;;0.93;;
18592;SDS011;9426;54.118;17.948;2024-01-15T20:13:01;4.33;;;1.30;;
18592;SDS011;9426;54.118;17.948;2024-01-15T20:18:27;3.47;;;1.37;;
18592;SDS011;9426;54.118;17.948;2024-01-15T20:23:51;3.40;;;1.30;;
18592;SDS011;9426;54.118;17.948;2024-01-15T20:29:15;5.53;;;1.63;;
18592;SDS011;9426;54.118;17.948;2024-01-15T20:34:41;1.97;;;1.20;;
18592;SDS011;9426;54.118;17.948;2024-01-15T20:40:05;3.07;;;1.27;;
18592;SDS011;9426;54.118;17.948;2024-01-15T20:45:31;2.53;;;1.20;;
18592;SDS011;9426;54.118;17.948;2024-01-15T20:50:56;3.37;;;1.00;;
18592;SDS011;9426;54.118;17.948;2024-01-15T20:56:21;3.80;;;1.37;;
18592;SDS011;9426;54.118;17.948;2024-01-15T21:01:45;3.77;;;1.07;;
18592;SDS011;9426;54.118;17.948;2024-01-15T21:07:10;2.43;;;1.30;;
18592;SDS011;9426;54.118;17.948;2024-01-15T21:12:34;2.73;;;1.43;;
18592;SDS011;9426;54.118;17.948;2024-01-15T21:17:58;4.30;;;1.40;;
18592;SDS011;9426;54.118;17.948;2024-01-15T21:23:24;2.07;;;1.20;;
18592;SDS011;9426;54.118;17.948;2024-01-15T21:28:48;2.43;;;1.20;;
18592;SDS011;9426;54.118;17.948;2024-01-15T21:34:12;2.67;;;1.10;;
18592;SDS011;9426;54.118;17.948;2024-01-15T21:39:38;3.37;;;1.10;;
18592;SDS011;9426;54.118;17.948;2024-01-15T21:45:05;5.03;;;1.37;;
18592;SDS011;9426;54.118;17.948;2024-01-15T21:50:30;2.20;;;1.00;;
18592;SDS011;9426;54.118;17.948;2024-01-15T21:55:57;4.43;;;1.37;;
18592;SDS011;9426;54.118;17.948;2024-01-15T22:01:21;1.97;;;1.10;;
18592;SDS011;9426;54.118;17.948;2024-01-15T22:06:46;3.20;;;1.13;;
18592;SDS011;9426;54.118;17.948;2024-01-15T22:12:12;2.27;;;1.27;;
18592;SDS011;9426;54.118;17.948;2024-01-15T22:17:37;2.93;;;1.50;;
18592;SDS011;9426;54.118;17.948;2024-01-15T22:23:01;2.57;;;1.27;;
18592;SDS011;9426;54.118;17.948;2024-01-15T22:28:26;1.57;;;1.00;;
18592;SDS011;9426;54.118;17.948;2024-01-15T22:33:51;6.30;;;1.70;;
18592;SDS011;9426;54.118;17.948;2024-01-15T22:39:15;4.27;;;1.53;;
18592;SDS011;9426;54.118;17.948;2024-01-15T22:44:40;3.63;;;1.07;;
18592;SDS011;9426;54.118;17.948;2024-01-15T22:50:04;3.60;;;1.10;;
18592;SDS011;9426;54.118;17.948;2024-01-15T22:55:29;3.30;;;1.50;;
18592;SDS011;9426;54.118;17.948;2024-01-15T23:00:54;4.40;;;1.23;;
18592;SDS011;9426;54.118;17.948;2024-01-15T23:06:20;4.10;;;1.10;;
18592;SDS011;9426;54.118;17.948;2024-01-15T23:11:45;4.00;;;1.70;;
18592;SDS011;9426;54.118;17.948;2024-01-15T23:17:10;2.13;;;1.27;;
18592;SDS011;9426;54.118;17.948;2024-01-15T23:22:35;2.73;;;1.30;;
18592;SDS011;9426;54.118;17.948;2024-01-15T23:28:01;3.80;;;1.40;;
18592;SDS011;9426;54.118;17.948;2024-01-15T23:33:26;2.20;;;1.20;;
18592;SDS011;9426;54.118;17.948;2024-01-15T23:38:51;3.27;;;1.60;;
18592;SDS011;9426;54.118;17.948;2024-01-15T23:44:15;2.00;;;1.20;;
18592;SDS011;9426;54.118;17.948;2024-01-15T23:49:41;2.17;;;1.00;;
18592;SDS011;9426;54.118;17.948;2024-01-15T23:55:05;2.80;;;1.10;;
